createdAt,value
2018-09-14T10:29:49.269Z,14.06
2018-09-14T10:32:18.294Z,23.23
2018-09-14T10:34:47.186Z,23.25
2018-09-14T10:37:17.026Z,23.08
2018-09-14T10:39:45.518Z,23.05
2018-09-14T10:42:14.427Z,22.97
2018-09-14T10:44:43.205Z,23.09
2018-09-14T10:47:12.000Z,23.18
2018-09-14T10:49:40.969Z,23.11
2018-09-14T10:52:09.530Z,23.28
2018-09-14T10:54:38.421Z,23.55
2018-09-14T10:57:07.365Z,23.70
2018-09-14T10:59:36.243Z,23.64
2018-09-14T11:02:05.721Z,23.41
2018-09-14T11:04:34.569Z,23.20
2018-09-14T11:07:03.846Z,23.18
2018-09-14T11:09:32.375Z,23.25
2018-09-14T11:12:01.304Z,23.33
2018-09-14T11:14:29.822Z,23.27
2018-09-14T11:16:58.744Z,23.28
2018-09-14T11:19:27.216Z,23.41
2018-09-14T11:21:55.920Z,23.31
2018-09-14T11:24:24.501Z,23.10
2018-09-14T11:26:53.357Z,22.88
2018-09-14T11:29:21.876Z,22.72
2018-09-14T11:31:51.673Z,22.45
2018-09-14T11:34:21.678Z,22.26
2018-09-14T11:36:50.325Z,22.16
2018-09-14T11:39:19.029Z,22.18
2018-09-14T11:41:47.788Z,22.26
2018-09-14T11:44:16.914Z,22.27
2018-09-14T11:46:46.032Z,22.34
2018-09-14T11:49:14.800Z,22.34
2018-09-14T11:51:44.224Z,22.33
2018-09-14T11:54:12.777Z,22.27
2018-09-14T11:56:41.825Z,22.31
2018-09-14T11:59:10.391Z,22.34
2018-09-14T12:01:39.319Z,22.58
2018-09-14T12:04:08.610Z,22.69
2018-09-14T12:06:37.153Z,22.84
2018-09-14T12:09:08.467Z,22.90
2018-09-14T12:11:37.561Z,22.94
2018-09-14T12:14:07.128Z,23.00
2018-09-14T12:16:36.413Z,23.12
2018-09-14T12:19:05.174Z,23.17
2018-09-14T12:21:34.024Z,23.07
2018-09-14T12:24:02.863Z,22.98
2018-09-14T12:26:31.504Z,22.91
2018-09-14T12:29:00.285Z,22.83
2018-09-14T12:31:28.853Z,22.83
2018-09-14T12:33:57.981Z,22.84
2018-09-14T12:36:26.901Z,22.70
2018-09-14T12:38:55.762Z,22.63
2018-09-14T12:41:25.017Z,22.51
2018-09-14T12:43:53.506Z,22.46
2018-09-14T12:46:22.044Z,22.33
2018-09-14T12:48:50.572Z,22.26
2018-09-14T12:51:19.154Z,22.19
2018-09-14T12:53:47.725Z,22.15
2018-09-14T12:56:16.786Z,22.11
2018-09-14T12:58:45.461Z,21.97
2018-09-14T13:01:14.350Z,21.92
2018-09-14T13:03:42.952Z,21.80
2018-09-14T13:06:11.788Z,21.74
2018-09-14T13:08:41.452Z,21.67
2018-09-14T13:11:10.026Z,21.66
2018-09-14T13:13:38.953Z,21.58
2018-09-14T13:16:07.692Z,21.51
2018-09-14T13:18:36.335Z,21.46
2018-09-14T13:21:04.935Z,21.41
2018-09-14T13:23:33.905Z,21.37
2018-09-14T13:26:02.680Z,21.33
2018-09-14T13:28:31.615Z,21.30
2018-09-14T13:31:00.680Z,21.30
2018-09-14T13:33:29.303Z,21.27
2018-09-14T13:35:57.940Z,21.25
2018-09-14T13:38:27.536Z,21.21
2018-09-14T13:40:56.493Z,21.20
2018-09-14T13:43:25.589Z,21.16
2018-09-14T13:45:54.417Z,21.11
2018-09-14T13:48:23.074Z,21.04
2018-09-14T13:50:51.631Z,20.96
2018-09-14T13:53:20.172Z,20.83
2018-09-14T13:55:48.739Z,20.74
2018-09-14T13:58:17.366Z,20.71
2018-09-14T14:00:46.779Z,20.64
2018-09-14T14:03:15.593Z,20.62
2018-09-14T14:05:44.191Z,20.58
2018-09-14T14:08:13.211Z,20.58
2018-09-14T14:10:42.089Z,20.56
2018-09-14T14:13:11.005Z,20.49
2018-09-14T14:15:40.078Z,20.42
2018-09-14T14:18:08.962Z,20.39
2018-09-14T14:20:37.593Z,20.32
2018-09-14T14:23:07.073Z,20.23
2018-09-14T14:25:36.172Z,20.15
2018-09-14T14:28:04.887Z,20.10
2018-09-14T14:30:34.150Z,20.06
2018-09-14T14:33:03.313Z,20.02
2018-09-14T14:35:32.338Z,20.02
2018-09-14T14:38:01.120Z,19.98
2018-09-14T14:40:30.009Z,19.94
2018-09-14T14:42:59.004Z,19.96
2018-09-14T14:45:27.795Z,20.03
2018-09-14T14:47:56.628Z,20.13
2018-09-14T14:50:25.072Z,20.14
2018-09-14T14:52:53.752Z,20.17
2018-09-14T14:55:22.653Z,20.13
2018-09-14T14:57:51.601Z,20.12
2018-09-14T15:00:20.743Z,20.14
2018-09-14T15:02:49.815Z,20.13
2018-09-14T15:05:18.327Z,20.18
2018-09-14T15:07:47.310Z,20.18
2018-09-14T15:10:15.780Z,20.22
2018-09-14T15:12:44.902Z,20.27
2018-09-14T15:15:13.322Z,20.30
2018-09-14T15:17:42.251Z,20.33
2018-09-14T15:20:10.775Z,20.36
2018-09-14T15:22:39.697Z,20.30
2018-09-14T15:25:08.689Z,20.28
2018-09-14T15:27:37.552Z,20.28
2018-09-14T15:30:06.163Z,20.27
2018-09-14T15:32:35.124Z,20.25
2018-09-14T15:35:04.320Z,20.20
2018-09-14T15:37:33.356Z,20.17
2018-09-14T15:40:01.912Z,20.18
2018-09-14T15:42:31.006Z,20.16
2018-09-14T15:44:59.500Z,20.12
2018-09-14T15:47:28.334Z,20.02
2018-09-14T15:49:56.813Z,19.98
2018-09-14T15:52:25.742Z,19.95
2018-09-14T15:54:55.338Z,19.95
2018-09-14T15:57:24.228Z,19.96
2018-09-14T15:59:52.752Z,20.00
2018-09-14T16:02:21.809Z,19.98
2018-09-14T16:04:50.550Z,19.97
2018-09-14T16:07:19.480Z,19.91
2018-09-14T16:09:48.064Z,19.92
2018-09-14T16:12:17.064Z,19.87
2018-09-14T16:14:45.551Z,19.84
2018-09-14T16:17:14.409Z,19.81
2018-09-14T16:19:43.033Z,19.82
2018-09-14T16:22:12.033Z,19.79
2018-09-14T16:24:41.260Z,19.77
2018-09-14T16:27:10.257Z,19.73
2018-09-14T16:29:39.023Z,19.67
2018-09-14T16:32:08.464Z,19.60
2018-09-14T16:34:37.101Z,19.53
2018-09-14T16:37:08.382Z,19.47
2018-09-14T16:39:37.326Z,19.40
2018-09-14T16:42:05.880Z,19.37
2018-09-14T16:44:34.820Z,19.33
2018-09-14T16:47:04.671Z,19.27
2018-09-14T16:49:33.703Z,19.22
2018-09-14T16:52:02.501Z,19.19
2018-09-14T16:54:31.372Z,19.16
2018-09-14T16:57:00.308Z,19.12
2018-09-14T16:59:29.260Z,19.06
2018-09-14T17:01:57.790Z,19.04
2018-09-14T17:04:26.800Z,18.99
2018-09-14T17:06:56.336Z,18.98
2018-09-14T17:09:25.953Z,18.95
2018-09-14T17:11:54.983Z,18.91
2018-09-14T17:14:24.125Z,18.88
2018-09-14T17:16:53.300Z,18.83
2018-09-14T17:19:22.110Z,18.79
2018-09-14T17:21:51.223Z,18.75
2018-09-14T17:24:19.897Z,18.71
2018-09-14T17:26:48.639Z,18.69
2018-09-14T17:29:17.478Z,18.65
2018-09-14T17:31:46.034Z,18.62
2018-09-14T17:34:15.024Z,18.60
2018-09-14T17:36:43.570Z,18.55
2018-09-14T17:39:12.386Z,18.51
2018-09-14T17:41:41.884Z,18.48
2018-09-14T17:44:10.881Z,18.43
2018-09-14T17:46:40.313Z,18.40
2018-09-14T17:49:08.992Z,18.35
2018-09-14T17:51:37.948Z,18.32
2018-09-14T17:54:07.025Z,18.30
2018-09-14T17:56:36.229Z,18.28
2018-09-14T17:59:05.288Z,18.25
2018-09-14T18:01:34.277Z,18.23
2018-09-14T18:04:03.071Z,18.19
2018-09-14T18:06:31.847Z,18.16
2018-09-14T18:09:00.651Z,18.14
2018-09-14T18:11:29.633Z,18.12
2018-09-14T18:13:59.032Z,18.09
2018-09-14T18:16:27.992Z,18.06
2018-09-14T18:18:56.456Z,18.01
2018-09-14T18:21:25.324Z,17.98
2018-09-14T18:23:53.758Z,17.92
2018-09-14T18:26:22.494Z,17.87
2018-09-14T18:28:51.016Z,17.81
2018-09-14T18:31:19.651Z,17.76
2018-09-14T18:33:48.753Z,17.71
2018-09-14T18:36:17.726Z,17.68
2018-09-14T18:38:46.569Z,17.65
2018-09-14T18:41:15.246Z,17.63
2018-09-14T18:43:44.155Z,17.61
2018-09-14T18:46:12.688Z,17.58
2018-09-14T18:48:41.625Z,17.54
2018-09-14T18:51:10.528Z,17.51
2018-09-14T18:53:39.167Z,17.48
2018-09-14T18:56:08.406Z,17.44
2018-09-14T18:58:36.965Z,17.38
2018-09-14T19:01:06.181Z,17.33
2018-09-14T19:03:35.069Z,17.26
2018-09-14T19:06:05.537Z,17.23
2018-09-14T19:08:34.352Z,17.18
2018-09-14T19:11:03.478Z,17.14
2018-09-14T19:13:31.993Z,17.11
2018-09-14T19:16:01.189Z,17.08
2018-09-14T19:18:29.765Z,17.04
2018-09-14T19:20:58.397Z,17.00
2018-09-14T19:23:27.709Z,16.96
2018-09-14T19:25:56.612Z,16.93
2018-09-14T19:28:25.532Z,16.91
2018-09-14T19:30:54.130Z,16.88
2018-09-14T19:33:23.146Z,16.84
2018-09-14T19:35:51.820Z,16.82
2018-09-14T19:38:20.551Z,16.79
2018-09-14T19:40:49.452Z,16.76
2018-09-14T19:43:17.987Z,16.75
2018-09-14T19:45:46.887Z,16.72
2018-09-14T19:48:15.421Z,16.70
2018-09-14T19:50:45.319Z,16.68
2018-09-14T19:53:13.873Z,16.64
2018-09-14T19:55:42.849Z,16.63
2018-09-14T19:58:11.474Z,16.62
2018-09-14T20:00:40.056Z,16.60
2018-09-14T20:03:09.302Z,16.61
2018-09-14T20:05:37.843Z,16.59
2018-09-14T20:08:06.739Z,16.59
2018-09-14T20:10:35.209Z,16.56
2018-09-14T20:13:04.809Z,16.55
2018-09-14T20:15:33.344Z,16.55
2018-09-14T20:18:02.416Z,16.53
2018-09-14T20:20:31.325Z,16.51
2018-09-14T20:23:01.099Z,16.50
2018-09-14T20:25:29.964Z,16.48
2018-09-14T20:27:59.346Z,16.47
2018-09-14T20:30:28.301Z,16.47
2018-09-14T20:32:57.520Z,16.48
2018-09-14T20:35:26.593Z,16.45
2018-09-14T20:37:55.384Z,16.43
2018-09-14T20:40:24.193Z,16.44
2018-09-14T20:42:52.786Z,16.43
2018-09-14T20:45:21.464Z,16.42
2018-09-14T20:47:50.649Z,16.40
2018-09-14T20:50:19.712Z,16.40
2018-09-14T20:52:48.530Z,16.36
2018-09-14T20:55:17.280Z,16.34
2018-09-14T20:57:46.178Z,16.34
2018-09-14T21:00:17.878Z,16.32
2018-09-14T21:02:46.861Z,16.31
2018-09-14T21:05:15.444Z,16.28
2018-09-14T21:07:44.482Z,16.28
2018-09-14T21:10:13.454Z,16.28
2018-09-14T21:12:42.127Z,16.28
2018-09-14T21:15:11.010Z,16.28
2018-09-14T21:17:40.367Z,16.27
2018-09-14T21:20:08.870Z,16.27
2018-09-14T21:22:38.218Z,16.27
2018-09-14T21:25:08.596Z,16.26
2018-09-14T21:27:37.692Z,16.27
2018-09-14T21:30:07.961Z,16.27
2018-09-14T21:32:37.341Z,16.28
2018-09-14T21:35:06.609Z,16.30
2018-09-14T21:37:35.408Z,16.30
2018-09-14T21:40:05.044Z,16.31
2018-09-14T21:45:06.298Z,16.31
2018-09-14T21:47:35.136Z,16.31
2018-09-14T21:50:03.677Z,16.31
2018-09-14T21:52:32.504Z,16.32
2018-09-14T21:55:01.415Z,16.36
2018-09-14T21:57:29.957Z,16.37
2018-09-14T21:59:58.944Z,16.39
2018-09-14T22:02:27.529Z,16.41
2018-09-14T22:04:56.310Z,16.44
2018-09-14T22:07:25.236Z,16.45
2018-09-14T22:09:53.900Z,16.44
2018-09-14T22:12:22.787Z,16.44
2018-09-14T22:14:51.363Z,16.46
2018-09-14T22:17:20.118Z,16.46
2018-09-14T22:19:48.622Z,16.45
2018-09-14T22:22:17.229Z,16.47
2018-09-14T22:24:46.063Z,16.47
2018-09-14T22:27:14.577Z,16.48
2018-09-14T22:29:43.350Z,16.48
2018-09-14T22:32:12.207Z,16.49
2018-09-14T22:34:41.439Z,16.49
2018-09-14T22:37:10.221Z,16.48
2018-09-14T22:39:38.924Z,16.49
2018-09-14T22:42:08.201Z,16.51
2018-09-14T22:44:36.750Z,16.53
2018-09-14T22:47:05.884Z,16.56
2018-09-14T22:49:34.351Z,16.56
2018-09-14T22:52:03.319Z,16.56
2018-09-14T22:54:32.271Z,16.56
2018-09-14T22:57:00.886Z,16.56
2018-09-14T22:59:29.598Z,16.56
2018-09-14T23:01:58.117Z,16.56
2018-09-14T23:04:26.769Z,16.55
2018-09-14T23:06:55.592Z,16.56
2018-09-14T23:09:24.142Z,16.55
2018-09-14T23:11:53.248Z,16.54
2018-09-14T23:14:21.952Z,16.53
2018-09-14T23:16:50.970Z,16.51
2018-09-14T23:19:19.535Z,16.51
2018-09-14T23:21:48.494Z,16.50
2018-09-14T23:24:17.295Z,16.51
2018-09-14T23:26:45.985Z,16.49
2018-09-14T23:29:14.726Z,16.46
2018-09-14T23:31:43.246Z,16.42
2018-09-14T23:34:11.744Z,16.40
2018-09-14T23:36:40.754Z,16.39
2018-09-14T23:39:10.790Z,16.36
2018-09-14T23:41:39.447Z,16.34
2018-09-14T23:44:08.441Z,16.31
2018-09-14T23:46:37.392Z,16.30
2018-09-14T23:49:06.114Z,16.29
2018-09-14T23:51:35.178Z,16.26
2018-09-14T23:54:03.736Z,16.25
2018-09-14T23:56:32.600Z,16.23
2018-09-14T23:59:01.148Z,16.22
